createdAt,value
2023-04-04T00:00:13.998Z,102259.13
2023-04-04T00:02:40.253Z,102280.66
2023-04-04T00:05:06.911Z,102305.09
2023-04-04T00:07:33.199Z,102304.75
2023-04-04T00:09:59.451Z,102282.06
2023-04-04T00:12:28.485Z,102281.22
2023-04-04T00:14:55.982Z,102265.38
2023-04-04T00:17:22.200Z,102243.94
2023-04-04T00:19:48.577Z,102235.19
2023-04-04T00:22:14.785Z,102215.38
2023-04-04T00:24:41.019Z,102195.25
2023-04-04T00:27:07.223Z,102173.13
2023-04-04T00:29:33.454Z,102160.66
2023-04-04T00:31:59.867Z,102147.84
2023-04-04T00:34:26.090Z,102172.31
2023-04-04T00:36:52.308Z,102162.50
2023-04-04T00:39:18.520Z,102150.88
2023-04-04T00:41:44.744Z,102156.94
2023-04-04T00:44:10.956Z,102162.19
2023-04-04T00:46:37.169Z,102159.50
2023-04-04T00:49:03.383Z,102157.06
2023-04-04T00:51:29.611Z,102145.41
2023-04-04T00:53:55.823Z,102124.84
2023-04-04T00:56:22.047Z,102126.09
2023-04-04T00:58:48.294Z,102113.53
2023-04-04T01:01:14.554Z,102103.63
2023-04-04T01:03:40.801Z,102121.47
2023-04-04T01:06:07.074Z,102129.25
2023-04-04T01:08:33.277Z,102119.84
2023-04-04T01:10:59.500Z,102118.81
2023-04-04T01:13:25.701Z,102110.91
2023-04-04T01:15:51.923Z,102164.31
2023-04-04T01:18:19.232Z,102187.81
2023-04-04T01:20:50.120Z,102223.31
2023-04-04T01:23:16.323Z,102241.72
2023-04-04T01:25:42.573Z,102220.91
2023-04-04T01:28:08.780Z,102200.28
2023-04-04T01:30:35.067Z,102195.28
2023-04-04T01:33:02.101Z,102177.25
2023-04-04T01:35:33.473Z,102166.06
2023-04-04T01:38:18.035Z,102153.13
2023-04-04T01:40:44.868Z,102147.09
2023-04-04T01:43:11.093Z,102131.97
2023-04-04T01:45:37.347Z,102097.88
2023-04-04T01:48:03.608Z,102083.66
2023-04-04T01:50:29.848Z,102065.13
2023-04-04T01:52:56.056Z,102048.25
2023-04-04T01:55:22.278Z,102050.81
2023-04-04T01:57:48.505Z,102054.19
2023-04-04T02:00:14.775Z,102062.69
2023-04-04T02:02:41.012Z,102065.03
2023-04-04T02:05:07.321Z,102083.78
2023-04-04T02:07:33.547Z,102095.88
2023-04-04T02:09:59.764Z,102108.44
2023-04-04T02:12:25.982Z,102103.56
2023-04-04T02:14:52.194Z,102123.13
2023-04-04T02:17:18.419Z,102105.75
2023-04-04T02:19:44.618Z,102087.94
2023-04-04T02:22:10.844Z,102081.56
2023-04-04T02:24:37.057Z,102064.47
2023-04-04T02:27:03.288Z,102045.97
2023-04-04T02:29:29.515Z,102026.78
2023-04-04T02:31:55.719Z,102021.56
2023-04-04T02:34:21.947Z,102032.75
2023-04-04T02:36:48.173Z,102060.28
2023-04-04T02:39:14.367Z,102047.63
2023-04-04T02:41:40.606Z,102035.53
2023-04-04T02:44:06.824Z,102074.16
2023-04-04T02:46:33.037Z,102083.94
2023-04-04T02:48:59.244Z,102093.25
2023-04-04T02:51:25.464Z,102094.75
2023-04-04T02:53:51.663Z,102090.69
2023-04-04T02:56:17.875Z,102082.31
2023-04-04T02:58:44.077Z,102081.47
2023-04-04T03:01:10.362Z,102098.13
2023-04-04T03:03:36.742Z,102088.94
2023-04-04T03:06:03.116Z,102075.22
2023-04-04T03:08:29.336Z,102073.22
2023-04-04T03:10:56.021Z,102057.75
2023-04-04T03:13:22.228Z,102043.56
2023-04-04T03:15:48.470Z,102053.94
2023-04-04T03:18:14.680Z,102038.91
2023-04-04T03:20:41.027Z,102044.97
2023-04-04T03:23:07.556Z,102075.19
2023-04-04T03:25:33.758Z,102088.59
2023-04-04T03:28:07.424Z,102092.41
2023-04-04T03:30:33.625Z,102085.44
2023-04-04T03:32:59.878Z,102088.72
2023-04-04T03:35:26.161Z,102068.94
2023-04-04T03:37:52.387Z,102057.41
2023-04-04T03:40:18.655Z,102110.53
2023-04-04T03:42:44.897Z,102159.00
2023-04-04T03:45:11.153Z,102185.19
2023-04-04T03:47:37.459Z,102171.97
2023-04-04T03:50:03.776Z,102147.78
2023-04-04T03:52:30.016Z,102129.84
2023-04-04T03:54:56.233Z,102123.00
2023-04-04T03:57:22.449Z,102124.41
2023-04-04T03:59:48.659Z,102118.47
2023-04-04T04:02:14.935Z,102103.84
2023-04-04T04:04:41.272Z,102077.41
2023-04-04T04:07:07.713Z,102086.84
2023-04-04T04:09:33.919Z,102074.66
2023-04-04T04:12:00.136Z,102198.94
2023-04-04T04:14:26.367Z,102205.44
2023-04-04T04:16:52.589Z,102192.31
2023-04-04T04:19:19.132Z,102199.44
2023-04-04T04:21:45.364Z,102200.25
2023-04-04T04:24:11.683Z,102191.91
2023-04-04T04:26:37.995Z,102223.69
2023-04-04T04:29:04.226Z,102232.13
2023-04-04T04:31:30.469Z,102220.41
2023-04-04T04:33:56.745Z,102198.31
2023-04-04T04:36:23.074Z,102179.81
2023-04-04T04:38:49.377Z,102134.69
2023-04-04T04:41:15.592Z,102151.91
2023-04-04T04:43:41.814Z,102134.16
2023-04-04T04:46:08.023Z,102126.13
2023-04-04T04:48:34.416Z,102091.38
2023-04-04T04:51:00.652Z,102091.69
2023-04-04T04:53:26.934Z,102113.09
2023-04-04T04:55:53.200Z,102115.53
2023-04-04T04:58:19.417Z,102127.75
2023-04-04T05:00:45.691Z,102130.78
2023-04-04T05:03:12.048Z,102085.81
2023-04-04T05:05:38.310Z,102060.22
2023-04-04T05:08:04.606Z,102088.56
2023-04-04T05:10:30.891Z,102131.94
2023-04-04T05:12:57.245Z,101987.59
2023-04-04T05:15:23.512Z,101689.78
2023-04-04T05:17:49.761Z,101547.28
2023-04-04T05:20:16.126Z,101489.91
2023-04-04T05:22:45.361Z,101354.75
2023-04-04T05:25:11.766Z,101284.81
2023-04-04T05:27:38.213Z,101215.63
2023-04-04T05:30:04.604Z,101201.81
2023-04-04T05:32:30.926Z,101248.00
2023-04-04T05:34:57.186Z,101164.22
2023-04-04T05:37:23.403Z,100985.84
2023-04-04T05:39:49.621Z,100879.75
2023-04-04T05:42:15.841Z,100972.59
2023-04-04T05:44:42.058Z,101196.88
2023-04-04T05:47:08.404Z,101344.03
2023-04-04T05:49:34.626Z,101465.75
2023-04-04T05:52:00.846Z,101552.44
2023-04-04T05:54:27.067Z,101466.06
2023-04-04T05:56:53.271Z,101449.28
2023-04-04T05:59:19.577Z,101450.69
2023-04-04T06:01:45.820Z,101536.69
2023-04-04T06:04:12.038Z,101589.72
2023-04-04T06:06:38.249Z,101729.25
2023-04-04T06:09:05.444Z,101609.38
2023-04-04T06:11:33.126Z,101484.34
2023-04-04T06:13:59.363Z,101515.31
2023-04-04T06:16:25.628Z,101443.66
2023-04-04T06:18:51.851Z,101415.91
2023-04-04T06:21:18.065Z,101247.59
2023-04-04T06:23:44.300Z,101195.00
2023-04-04T06:29:10.633Z,100887.94
2023-04-04T06:31:36.935Z,100915.25
2023-04-04T06:34:03.164Z,100804.69
2023-04-04T06:36:29.436Z,100879.38
2023-04-04T06:38:55.687Z,100941.19
2023-04-04T06:41:21.947Z,101099.84
2023-04-04T06:43:48.203Z,101203.00
2023-04-04T06:46:14.482Z,101259.22
2023-04-04T06:48:40.761Z,101206.06
2023-04-04T06:51:07.259Z,101150.84
2023-04-04T06:53:33.665Z,101142.78
2023-04-04T06:56:00.192Z,101081.06
2023-04-04T06:58:26.666Z,101195.78
2023-04-04T07:00:53.126Z,101346.88
2023-04-04T07:06:07.973Z,101384.28
2023-04-04T07:08:37.292Z,101375.06
2023-04-04T07:11:07.402Z,101380.34
2023-04-04T07:13:41.701Z,101031.59
2023-04-04T07:16:10.512Z,101090.81
2023-04-04T07:18:51.625Z,101216.13
2023-04-04T07:21:39.194Z,101170.63
2023-04-04T07:24:05.493Z,101218.59
2023-04-04T07:26:31.714Z,101295.28
2023-04-04T07:29:07.271Z,101403.03
2023-04-04T07:31:33.549Z,101280.06
2023-04-04T07:33:59.807Z,101221.66
2023-04-04T07:36:26.037Z,101048.56
2023-04-04T07:38:52.328Z,101073.44
2023-04-04T07:41:18.571Z,100991.53
2023-04-04T07:43:44.793Z,100983.03
2023-04-04T07:46:11.102Z,101112.25
2023-04-04T07:48:37.356Z,101197.22
2023-04-04T07:51:03.650Z,101086.94
2023-04-04T07:53:30.061Z,101064.34
2023-04-04T07:55:56.306Z,100856.25
2023-04-04T07:58:22.522Z,100993.00
2023-04-04T08:00:48.761Z,101078.13
2023-04-04T08:03:15.180Z,101087.91
2023-04-04T08:05:41.461Z,101177.91
2023-04-04T08:08:07.668Z,101078.34
2023-04-04T08:10:33.897Z,101148.75
2023-04-04T08:13:00.129Z,101013.94
2023-04-04T08:15:26.345Z,101198.47
2023-04-04T08:17:52.648Z,101005.16
2023-04-04T08:20:18.942Z,101032.03
2023-04-04T08:22:45.190Z,100996.19
2023-04-04T08:25:11.417Z,101018.13
2023-04-04T08:27:40.615Z,101005.34
2023-04-04T08:30:07.131Z,100911.41
2023-04-04T08:32:33.405Z,100788.34
2023-04-04T08:34:59.656Z,100652.56
2023-04-04T08:37:25.861Z,100790.94
2023-04-04T08:39:52.085Z,100880.44
2023-04-04T08:42:18.361Z,100773.19
2023-04-04T08:44:44.591Z,100443.88
2023-04-04T08:47:11.123Z,100483.88
2023-04-04T08:49:38.281Z,100692.16
2023-04-04T08:52:04.607Z,100754.34
2023-04-04T08:54:30.864Z,100857.09
2023-04-04T08:56:57.317Z,101119.47
2023-04-04T08:59:23.578Z,100939.19
2023-04-04T09:01:49.870Z,101097.47
2023-04-04T09:04:16.097Z,101098.50
2023-04-04T09:06:42.359Z,101145.59
2023-04-04T09:09:08.576Z,101270.16
2023-04-04T09:11:34.876Z,101029.44
2023-04-04T09:14:01.165Z,101014.53
2023-04-04T09:16:27.558Z,101077.13
2023-04-04T09:18:53.789Z,101099.91
2023-04-04T09:21:19.999Z,101235.38
2023-04-04T09:23:46.228Z,101339.75
2023-04-04T09:26:12.439Z,101466.84
2023-04-04T09:28:38.712Z,101320.59
2023-04-04T09:31:06.738Z,101182.09
2023-04-04T09:33:32.966Z,101050.38
2023-04-04T09:39:07.560Z,100783.91
2023-04-04T09:41:33.888Z,100777.69
2023-04-04T09:44:01.420Z,100234.44
2023-04-04T09:46:27.650Z,99839.75
2023-04-04T09:48:56.193Z,99712.66
2023-04-04T09:51:22.406Z,100126.53
2023-04-04T09:53:48.621Z,100118.88
2023-04-04T09:56:14.850Z,100260.47
2023-04-04T09:58:52.360Z,100212.50
2023-04-04T10:01:26.926Z,100210.72
2023-04-04T10:03:53.386Z,100030.97
2023-04-04T10:06:19.732Z,99929.88
2023-04-04T10:08:45.952Z,99961.31
2023-04-04T10:11:12.748Z,99821.47
2023-04-04T10:13:39.342Z,99789.88
2023-04-04T10:16:06.083Z,99539.25
2023-04-04T10:18:33.330Z,99433.00
2023-04-04T10:21:12.100Z,99677.13
2023-04-04T10:23:41.320Z,99914.22
2023-04-04T10:26:07.583Z,99796.16
2023-04-04T10:28:36.351Z,99733.84
2023-04-04T10:31:06.714Z,99649.94
2023-04-04T10:33:52.476Z,99830.75
2023-04-04T10:36:22.729Z,100025.06
2023-04-04T10:38:55.618Z,99942.34
2023-04-04T10:41:21.841Z,99767.31
2023-04-04T10:43:48.037Z,99865.38
2023-04-04T10:46:15.733Z,99922.44
2023-04-04T10:48:49.458Z,100114.69
2023-04-04T10:51:17.432Z,100076.50
2023-04-04T10:53:43.658Z,100088.69
2023-04-04T10:56:09.865Z,100182.00
2023-04-04T10:58:39.744Z,100291.47
2023-04-04T11:01:05.978Z,100276.09
2023-04-04T11:03:32.559Z,100190.81
2023-04-04T11:05:59.283Z,100307.81
2023-04-04T11:08:26.571Z,100420.44
2023-04-04T11:10:53.144Z,100523.22
2023-04-04T11:13:19.356Z,100615.19
2023-04-04T11:15:46.204Z,100780.84
2023-04-04T11:18:27.069Z,100884.53
2023-04-04T11:21:01.202Z,100801.53
2023-04-04T11:23:27.786Z,100780.19
2023-04-04T11:25:54.289Z,100801.03
2023-04-04T11:28:40.784Z,100900.81
2023-04-04T11:31:19.063Z,100749.41
2023-04-04T11:33:58.338Z,100758.03
2023-04-04T11:36:36.515Z,100779.00
2023-04-04T11:39:21.028Z,100816.22
2023-04-04T11:41:54.078Z,100514.69
2023-04-04T11:44:20.928Z,100218.84
2023-04-04T11:46:48.559Z,99722.13
2023-04-04T11:49:16.796Z,99978.72
2023-04-04T11:51:43.089Z,100123.22
2023-04-04T11:54:18.571Z,100039.75
2023-04-04T11:56:44.808Z,99891.75
2023-04-04T11:59:12.020Z,99603.78
2023-04-04T12:01:38.896Z,99530.44
2023-04-04T12:04:05.198Z,99800.88
2023-04-04T12:06:31.598Z,100241.97
2023-04-04T12:08:57.807Z,100237.25
2023-04-04T12:11:24.365Z,100079.28
2023-04-04T12:13:50.584Z,100280.94
2023-04-04T12:16:18.732Z,100073.00
2023-04-04T12:18:45.106Z,100144.16
2023-04-04T12:21:11.442Z,100001.16
2023-04-04T12:23:37.721Z,100005.16
2023-04-04T12:26:03.933Z,100228.72
2023-04-04T12:28:30.693Z,100252.03
2023-04-04T12:30:56.898Z,100180.06
2023-04-04T12:33:23.095Z,100170.94
2023-04-04T12:35:52.731Z,99912.28
2023-04-04T12:38:18.959Z,99901.50
2023-04-04T12:40:45.180Z,100072.94
2023-04-04T12:43:16.018Z,100408.03
2023-04-04T12:45:42.583Z,100438.88
2023-04-04T12:48:15.277Z,100487.53
2023-04-04T12:50:53.807Z,100226.13
2023-04-04T12:53:29.089Z,100197.25
2023-04-04T12:56:04.491Z,100390.91
2023-04-04T12:58:31.093Z,100383.47
2023-04-04T13:00:58.819Z,100455.44
2023-04-04T13:03:26.719Z,100363.56
2023-04-04T13:05:53.338Z,100276.66
2023-04-04T13:08:21.883Z,100388.50
2023-04-04T13:11:00.432Z,100488.97
2023-04-04T13:13:32.814Z,100228.81
2023-04-04T13:15:59.093Z,100184.81
2023-04-04T13:18:25.548Z,99996.25
2023-04-04T13:20:52.420Z,100127.25
2023-04-04T13:23:18.658Z,100280.19
2023-04-04T13:25:44.907Z,100327.81
2023-04-04T13:28:11.113Z,100391.22
2023-04-04T13:30:38.666Z,100232.41
2023-04-04T13:33:07.298Z,100247.66
2023-04-04T13:35:33.548Z,100151.97
2023-04-04T13:37:59.753Z,99714.22
2023-04-04T13:40:25.979Z,99542.16
2023-04-04T13:42:52.198Z,99639.81
2023-04-04T13:45:18.427Z,100010.25
2023-04-04T13:47:44.673Z,99857.22
2023-04-04T13:50:10.917Z,99739.97
2023-04-04T13:52:37.194Z,99861.72
2023-04-04T13:55:03.865Z,99929.00
2023-04-04T13:57:30.072Z,100002.69
2023-04-04T13:59:56.279Z,99940.16
2023-04-04T14:02:22.554Z,99788.03
2023-04-04T14:04:48.783Z,99965.66
2023-04-04T14:07:15.126Z,99896.09
2023-04-04T14:09:41.352Z,99740.66
2023-04-04T14:12:07.590Z,99817.97
2023-04-04T14:14:35.673Z,99798.00
2023-04-04T14:17:04.125Z,99686.47
2023-04-04T14:19:30.333Z,99546.28
2023-04-04T14:21:56.556Z,99671.94
2023-04-04T14:24:22.752Z,99886.09
2023-04-04T14:26:48.957Z,99994.66
2023-04-04T14:29:15.163Z,99950.78
2023-04-04T14:31:41.459Z,99871.25
2023-04-04T14:34:07.766Z,99848.69
2023-04-04T14:36:34.251Z,99831.44
2023-04-04T14:39:00.470Z,99741.47
2023-04-04T14:41:26.685Z,99753.66
2023-04-04T14:43:52.918Z,99952.66
2023-04-04T14:46:19.180Z,99815.75
2023-04-04T14:48:45.399Z,99808.13
2023-04-04T14:51:11.627Z,99752.56
2023-04-04T14:53:37.905Z,99915.78
2023-04-04T14:56:05.682Z,99919.59
2023-04-04T14:58:34.936Z,100008.56
2023-04-04T15:01:01.178Z,100159.53
2023-04-04T15:03:27.399Z,100044.09
2023-04-04T15:05:56.043Z,100079.81
2023-04-04T15:08:22.246Z,100192.13
2023-04-04T15:10:48.473Z,100140.34
2023-04-04T15:13:14.705Z,100138.19
2023-04-04T15:15:41.018Z,100150.38
2023-04-04T15:18:07.378Z,100028.06
2023-04-04T15:20:33.683Z,99912.22
2023-04-04T15:22:59.891Z,99950.78
2023-04-04T15:25:26.087Z,99863.59
2023-04-04T15:27:52.297Z,99843.44
2023-04-04T15:30:18.512Z,99837.81
2023-04-04T15:32:44.767Z,100148.56
2023-04-04T15:35:15.256Z,100163.66
2023-04-04T15:37:41.462Z,100254.19
2023-04-04T15:40:07.968Z,100149.25
2023-04-04T15:42:34.170Z,99951.00
2023-04-04T15:45:00.379Z,99802.34
2023-04-04T15:47:26.586Z,99722.38
2023-04-04T15:49:52.871Z,99774.66
2023-04-04T15:52:19.133Z,100049.53
2023-04-04T15:54:45.331Z,100055.38
2023-04-04T15:57:11.552Z,100179.88
2023-04-04T15:59:37.751Z,100320.59
2023-04-04T16:04:48.114Z,100495.34
2023-04-04T16:07:22.475Z,100563.28
2023-04-04T16:09:48.889Z,100641.81
2023-04-04T16:14:58.419Z,100729.44
2023-04-04T16:17:24.661Z,100714.09
2023-04-04T16:19:50.992Z,100694.19
2023-04-04T16:22:17.346Z,100711.88
2023-04-04T16:24:43.561Z,100835.59
2023-04-04T16:27:09.781Z,100784.41
2023-04-04T16:29:35.988Z,100780.44
2023-04-04T16:32:02.605Z,100777.84
2023-04-04T16:34:28.825Z,100839.75
2023-04-04T16:36:55.095Z,100748.16
2023-04-04T16:39:21.331Z,100780.19
2023-04-04T16:41:47.556Z,100766.88
2023-04-04T16:44:13.779Z,100705.91
2023-04-04T16:46:40.060Z,100722.47
2023-04-04T16:49:06.436Z,100705.34
2023-04-04T16:51:34.318Z,100669.28
2023-04-04T16:54:06.113Z,100717.69
2023-04-04T16:56:34.969Z,100760.69
2023-04-04T16:59:01.211Z,100756.31
2023-04-04T17:01:27.504Z,100815.66
2023-04-04T17:03:53.807Z,100891.72
2023-04-04T17:06:20.101Z,100938.09
2023-04-04T17:08:46.309Z,100927.75
2023-04-04T17:11:12.507Z,100956.94
2023-04-04T17:13:38.711Z,100964.88
2023-04-04T17:16:04.993Z,100986.56
2023-04-04T17:18:31.295Z,101024.31
2023-04-04T17:20:57.513Z,101084.00
2023-04-04T17:23:23.898Z,101104.03
2023-04-04T17:25:50.098Z,101152.56
2023-04-04T17:28:16.312Z,101212.59
2023-04-04T17:30:42.674Z,101231.44
2023-04-04T17:33:08.995Z,101249.81
2023-04-04T17:35:35.339Z,101282.44
2023-04-04T17:38:01.637Z,101237.19
2023-04-04T17:40:27.921Z,101227.56
2023-04-04T17:42:54.167Z,101248.44
2023-04-04T17:45:20.399Z,101298.28
2023-04-04T17:47:46.649Z,101373.22
2023-04-04T17:50:12.939Z,101378.84
2023-04-04T17:52:39.177Z,101410.16
2023-04-04T17:55:05.564Z,101493.38
2023-04-04T17:57:31.796Z,101580.81
2023-04-04T17:59:58.011Z,101614.41
2023-04-04T18:02:24.237Z,101635.06
2023-04-04T18:04:50.437Z,101649.31
2023-04-04T18:07:16.694Z,101650.59
2023-04-04T18:09:42.939Z,101658.50
2023-04-04T18:12:09.238Z,101670.16
2023-04-04T18:14:35.464Z,101682.59
2023-04-04T18:17:01.703Z,101689.25
2023-04-04T18:19:27.903Z,101715.41
2023-04-04T18:21:54.120Z,101737.22
2023-04-04T18:24:20.318Z,101762.59
2023-04-04T18:26:46.528Z,101781.16
2023-04-04T18:29:18.173Z,101808.22
2023-04-04T18:31:44.602Z,101824.84
2023-04-04T18:34:11.736Z,101820.34
2023-04-04T18:36:46.808Z,101827.44
2023-04-04T18:39:15.304Z,101859.88
2023-04-04T18:41:41.690Z,101849.53
2023-04-04T18:44:07.943Z,101861.28
2023-04-04T18:46:34.158Z,101864.03
2023-04-04T18:49:00.432Z,101863.69
2023-04-04T18:51:26.654Z,101865.78
2023-04-04T18:53:52.877Z,101866.25
2023-04-04T18:56:19.080Z,101867.38
2023-04-04T18:58:45.386Z,101858.19
2023-04-04T19:01:11.730Z,101856.38
2023-04-04T19:03:41.746Z,101866.50
2023-04-04T19:06:08.028Z,101867.78
2023-04-04T19:08:34.247Z,101900.69
2023-04-04T19:11:00.445Z,101885.16
2023-04-04T19:13:26.666Z,101903.88
2023-04-04T19:15:52.955Z,101900.94
2023-04-04T19:18:19.160Z,101919.00
2023-04-04T19:20:45.371Z,101920.56
2023-04-04T19:23:11.589Z,101904.78
2023-04-04T19:25:37.831Z,101964.19
2023-04-04T19:28:04.222Z,101948.72
2023-04-04T19:30:43.435Z,101937.56
2023-04-04T19:33:13.526Z,101941.75
2023-04-04T19:35:52.883Z,101931.59
2023-04-04T19:38:22.795Z,101935.13
2023-04-04T19:40:49.790Z,101931.59
2023-04-04T19:43:18.534Z,101935.78
2023-04-04T19:45:46.537Z,101913.34
2023-04-04T19:48:32.691Z,101896.19
2023-04-04T19:50:58.926Z,101890.81
2023-04-04T19:53:25.868Z,101892.75
2023-04-04T19:55:52.090Z,101885.97
2023-04-04T19:58:18.667Z,101888.84
2023-04-04T20:00:45.154Z,101882.41
2023-04-04T20:03:24.937Z,101878.00
2023-04-04T20:05:56.728Z,101888.94
2023-04-04T20:08:23.117Z,101869.59
2023-04-04T20:10:55.488Z,101874.41
2023-04-04T20:13:21.777Z,101865.88
2023-04-04T20:15:47.991Z,101861.28
2023-04-04T20:18:20.645Z,101839.94
2023-04-04T20:20:47.464Z,101844.25
2023-04-04T20:23:14.239Z,101869.28
2023-04-04T20:25:40.715Z,101898.31
2023-04-04T20:28:06.928Z,101867.28
2023-04-04T20:30:33.188Z,101906.41
2023-04-04T20:32:59.485Z,101892.72
2023-04-04T20:35:26.073Z,101858.50
2023-04-04T20:37:52.280Z,101908.41
2023-04-04T20:40:32.883Z,101923.38
2023-04-04T20:42:59.127Z,101907.38
2023-04-04T20:45:41.207Z,101898.03
2023-04-04T20:48:07.985Z,101894.19
2023-04-04T20:50:34.263Z,101865.75
2023-04-04T20:53:01.199Z,101857.34
2023-04-04T20:55:28.185Z,101831.91
2023-04-04T20:57:56.666Z,101824.91
2023-04-04T21:00:22.980Z,101826.81
2023-04-04T21:02:49.237Z,101825.50
2023-04-04T21:05:31.529Z,101827.94
2023-04-04T21:07:58.057Z,101827.28
2023-04-04T21:10:27.232Z,101805.28
2023-04-04T21:12:53.797Z,101817.34
2023-04-04T21:15:20.898Z,101828.66
2023-04-04T21:17:47.186Z,101827.84
2023-04-04T21:20:14.489Z,101799.84
2023-04-04T21:22:40.693Z,101801.25
2023-04-04T21:25:06.956Z,101795.59
2023-04-04T21:27:33.274Z,101801.25
2023-04-04T21:29:59.481Z,101813.66
2023-04-04T21:32:25.772Z,101786.22
2023-04-04T21:34:52.004Z,101781.03
2023-04-04T21:37:18.209Z,101781.47
2023-04-04T21:39:44.432Z,101793.38
2023-04-04T21:42:10.629Z,101791.38
2023-04-04T21:44:36.851Z,101810.69
2023-04-04T21:47:03.056Z,101796.53
2023-04-04T21:49:29.275Z,101792.63
2023-04-04T21:51:55.495Z,101792.47
2023-04-04T21:54:22.415Z,101792.34
2023-04-04T21:56:48.622Z,101776.09
2023-04-04T21:59:14.976Z,101755.66
2023-04-04T22:01:41.373Z,101737.72
2023-04-04T22:04:07.698Z,101752.50
2023-04-04T22:06:33.929Z,101752.41
2023-04-04T22:09:00.175Z,101755.41
2023-04-04T22:11:26.432Z,101775.66
2023-04-04T22:13:52.710Z,101779.19
2023-04-04T22:16:19.362Z,101793.91
2023-04-04T22:18:49.312Z,101777.84
2023-04-04T22:21:15.544Z,101787.53
2023-04-04T22:23:41.758Z,101776.13
2023-04-04T22:26:08.519Z,101726.31
2023-04-04T22:28:35.012Z,101766.78
2023-04-04T22:31:01.533Z,101813.97
2023-04-04T22:33:28.049Z,101821.97
2023-04-04T22:35:54.268Z,101857.72
2023-04-04T22:38:20.486Z,101836.31
2023-04-04T22:40:46.695Z,101818.84
2023-04-04T22:43:12.893Z,101783.75
2023-04-04T22:45:39.116Z,101776.69
2023-04-04T22:48:05.383Z,101751.47
2023-04-04T22:50:31.699Z,101741.31
2023-04-04T22:52:57.903Z,101722.66
2023-04-04T22:55:24.435Z,101725.44
2023-04-04T22:57:50.643Z,101731.63
2023-04-04T23:00:17.004Z,101767.84
2023-04-04T23:02:43.852Z,101733.50
2023-04-04T23:05:10.282Z,101732.84
2023-04-04T23:07:36.757Z,101726.31
2023-04-04T23:10:03.388Z,101716.84
2023-04-04T23:12:29.609Z,101701.56
2023-04-04T23:14:55.820Z,101691.44
2023-04-04T23:17:22.025Z,101682.94
2023-04-04T23:19:48.247Z,101672.44
2023-04-04T23:22:14.526Z,101666.91
2023-04-04T23:24:40.773Z,101669.47
2023-04-04T23:27:07.116Z,101666.75
2023-04-04T23:29:33.318Z,101660.06
2023-04-04T23:31:59.536Z,101658.44
2023-04-04T23:34:25.750Z,101670.88
2023-04-04T23:36:51.962Z,101670.72
2023-04-04T23:39:18.165Z,101665.06
2023-04-04T23:41:44.387Z,101681.00
2023-04-04T23:44:10.630Z,101686.78
2023-04-04T23:46:36.888Z,101693.38
2023-04-04T23:49:03.142Z,101680.41
2023-04-04T23:51:29.352Z,101706.72
2023-04-04T23:53:58.558Z,101760.59
2023-04-04T23:56:24.776Z,101766.94
2023-04-04T23:58:50.997Z,101784.78
